createdAt,value
2023-04-25T00:01:37.018Z,93.14
2023-04-25T00:04:03.776Z,93.00
2023-04-25T00:06:32.708Z,93.52
2023-04-25T00:08:59.201Z,93.29
2023-04-25T00:11:25.710Z,93.62
2023-04-25T00:13:52.136Z,93.69
2023-04-25T00:16:18.526Z,93.52
2023-04-25T00:18:47.162Z,93.60
2023-04-25T00:21:13.631Z,93.75
2023-04-25T00:23:40.380Z,93.98
2023-04-25T00:26:06.714Z,93.79
2023-04-25T00:28:33.102Z,93.67
2023-04-25T00:30:59.474Z,93.70
2023-04-25T00:33:25.916Z,93.69
2023-04-25T00:35:52.294Z,93.58
2023-04-25T00:38:18.614Z,92.89
2023-04-25T00:40:44.943Z,93.23
2023-04-25T00:43:11.267Z,92.66
2023-04-25T00:45:39.885Z,92.56
2023-04-25T00:48:06.625Z,92.75
2023-04-25T00:50:34.913Z,93.05
2023-04-25T00:53:02.061Z,92.72
2023-04-25T00:55:28.542Z,92.49
2023-04-25T00:57:54.863Z,92.75
2023-04-25T01:00:21.753Z,92.49
2023-04-25T01:02:48.353Z,92.34
2023-04-25T01:05:15.012Z,92.43
2023-04-25T01:07:41.713Z,92.74
2023-04-25T01:10:08.860Z,92.36
2023-04-25T01:12:35.464Z,92.25
2023-04-25T01:15:02.130Z,91.95
2023-04-25T01:17:30.234Z,91.99
2023-04-25T01:19:56.821Z,92.16
2023-04-25T01:22:23.611Z,91.79
2023-04-25T01:24:50.513Z,92.30
2023-04-25T01:27:17.481Z,91.69
2023-04-25T01:29:44.033Z,91.70
2023-04-25T01:32:10.957Z,92.21
2023-04-25T01:34:37.522Z,91.45
2023-04-25T01:37:03.998Z,92.04
2023-04-25T01:39:30.645Z,92.15
2023-04-25T01:41:57.724Z,91.89
2023-04-25T01:44:24.321Z,92.17
2023-04-25T01:46:50.709Z,91.94
2023-04-25T01:49:17.160Z,92.24
2023-04-25T01:51:44.035Z,92.16
2023-04-25T01:54:12.089Z,92.19
2023-04-25T01:56:39.202Z,91.69
2023-04-25T01:59:06.731Z,91.61
2023-04-25T02:01:33.931Z,91.74
2023-04-25T02:04:00.671Z,91.95
2023-04-25T02:06:27.416Z,91.70
2023-04-25T02:08:53.821Z,91.88
2023-04-25T02:11:20.288Z,91.91
2023-04-25T02:13:46.689Z,91.61
2023-04-25T02:16:14.174Z,91.58
2023-04-25T02:18:40.597Z,91.71
2023-04-25T02:21:07.399Z,91.77
2023-04-25T02:23:33.863Z,91.39
2023-04-25T02:26:00.452Z,91.84
2023-04-25T02:28:27.134Z,91.50
2023-04-25T02:30:53.975Z,91.65
2023-04-25T02:33:21.912Z,92.00
2023-04-25T02:35:48.582Z,91.34
2023-04-25T02:38:15.549Z,91.84
2023-04-25T02:40:42.096Z,91.78
2023-04-25T02:43:08.682Z,91.47
2023-04-25T02:45:36.016Z,91.88
2023-04-25T02:48:03.955Z,92.18
2023-04-25T02:50:30.343Z,92.06
2023-04-25T02:52:56.839Z,92.21
2023-04-25T02:55:24.029Z,91.89
2023-04-25T02:57:51.524Z,92.01
2023-04-25T03:00:17.918Z,92.78
2023-04-25T03:02:44.461Z,92.46
2023-04-25T03:05:10.866Z,92.96
2023-04-25T03:07:37.334Z,92.46
2023-04-25T03:10:03.994Z,92.86
2023-04-25T03:12:30.364Z,92.29
2023-04-25T03:14:56.731Z,92.79
2023-04-25T03:17:23.185Z,92.58
2023-04-25T03:19:49.596Z,92.28
2023-04-25T03:22:16.290Z,92.60
2023-04-25T03:24:42.625Z,92.42
2023-04-25T03:27:09.187Z,92.25
2023-04-25T03:29:35.579Z,92.39
2023-04-25T03:32:02.038Z,92.48
2023-04-25T03:34:28.992Z,92.15
2023-04-25T03:36:55.412Z,92.94
2023-04-25T03:39:21.823Z,92.84
2023-04-25T03:41:48.396Z,92.79
2023-04-25T03:44:15.132Z,92.90
2023-04-25T03:46:41.497Z,92.29
2023-04-25T03:49:07.998Z,92.79
2023-04-25T03:51:34.395Z,92.52
2023-04-25T03:54:00.762Z,92.30
2023-04-25T03:56:27.216Z,92.62
2023-04-25T03:58:53.634Z,92.40
2023-04-25T04:01:20.368Z,92.26
2023-04-25T04:03:46.905Z,92.33
2023-04-25T04:06:14.651Z,92.62
2023-04-25T04:08:40.983Z,91.93
2023-04-25T04:11:07.435Z,91.47
2023-04-25T04:13:33.884Z,91.49
2023-04-25T04:16:00.690Z,91.90
2023-04-25T04:18:27.222Z,91.70
2023-04-25T04:20:53.662Z,91.75
2023-04-25T04:23:20.881Z,91.57
2023-04-25T04:25:47.914Z,91.01
2023-04-25T04:28:14.361Z,90.95
2023-04-25T04:30:42.111Z,90.69
2023-04-25T04:33:08.652Z,91.17
2023-04-25T04:35:35.249Z,90.93
2023-04-25T04:38:01.748Z,90.22
2023-04-25T04:40:28.400Z,90.55
2023-04-25T04:42:57.334Z,90.03
2023-04-25T04:45:24.662Z,89.84
2023-04-25T04:47:51.190Z,90.15
2023-04-25T04:50:17.609Z,89.83
2023-04-25T04:52:44.035Z,89.21
2023-04-25T04:55:10.597Z,89.55
2023-04-25T04:57:37.862Z,89.03
2023-04-25T05:00:11.738Z,88.66
2023-04-25T05:02:39.712Z,88.20
2023-04-25T05:05:06.764Z,88.38
2023-04-25T05:07:33.142Z,88.03
2023-04-25T05:09:59.626Z,87.80
2023-04-25T05:12:26.345Z,88.37
2023-04-25T05:14:52.671Z,88.08
2023-04-25T05:17:19.058Z,88.14
2023-04-25T05:19:45.694Z,88.15
2023-04-25T05:22:12.020Z,87.69
2023-04-25T05:24:38.500Z,88.14
2023-04-25T05:27:04.858Z,88.08
2023-04-25T05:29:31.188Z,87.53
2023-04-25T05:31:57.607Z,88.06
2023-04-25T05:34:24.012Z,87.94
2023-04-25T05:36:50.517Z,87.85
2023-04-25T05:39:18.344Z,87.69
2023-04-25T05:41:44.901Z,87.85
2023-04-25T05:44:11.472Z,87.86
2023-04-25T05:46:37.972Z,87.67
2023-04-25T05:49:04.411Z,87.89
2023-04-25T05:51:30.849Z,87.32
2023-04-25T05:53:57.163Z,87.56
2023-04-25T05:56:23.923Z,87.09
2023-04-25T05:58:50.322Z,86.97
2023-04-25T06:01:17.014Z,87.16
2023-04-25T06:03:44.274Z,86.66
2023-04-25T06:06:10.850Z,86.73
2023-04-25T06:08:37.270Z,86.32
2023-04-25T06:11:03.693Z,86.19
2023-04-25T06:13:30.033Z,85.83
2023-04-25T06:15:56.420Z,85.86
2023-04-25T06:18:22.781Z,85.19
2023-04-25T06:20:49.154Z,84.65
2023-04-25T06:23:15.552Z,84.57
2023-04-25T06:25:41.859Z,84.09
2023-04-25T06:28:08.445Z,83.57
2023-04-25T06:30:34.792Z,82.73
2023-04-25T06:33:01.380Z,82.09
2023-04-25T06:35:27.832Z,82.11
2023-04-25T06:37:54.225Z,82.20
2023-04-25T06:40:20.715Z,82.29
2023-04-25T06:42:47.059Z,81.50
2023-04-25T06:45:13.424Z,81.59
2023-04-25T06:47:39.819Z,81.55
2023-04-25T06:50:07.562Z,81.36
2023-04-25T06:52:34.006Z,80.99
2023-04-25T06:55:00.500Z,80.38
2023-04-25T06:57:26.925Z,80.51
2023-04-25T06:59:53.322Z,80.52
2023-04-25T07:02:19.852Z,79.67
2023-04-25T07:04:47.364Z,79.24
2023-04-25T07:07:13.997Z,78.88
2023-04-25T07:09:40.372Z,78.31
2023-04-25T07:12:07.027Z,77.33
2023-04-25T07:14:33.544Z,77.21
2023-04-25T07:16:59.967Z,77.05
2023-04-25T07:19:27.552Z,76.84
2023-04-25T07:21:54.232Z,76.34
2023-04-25T07:24:20.889Z,76.60
2023-04-25T07:26:47.433Z,76.81
2023-04-25T07:29:13.880Z,75.88
2023-04-25T07:31:40.451Z,74.99
2023-04-25T07:34:06.951Z,74.58
2023-04-25T07:36:33.463Z,74.63
2023-04-25T07:38:59.833Z,75.08
2023-04-25T07:41:26.221Z,75.35
2023-04-25T07:43:52.566Z,74.58
2023-04-25T07:46:19.120Z,73.39
2023-04-25T07:48:45.560Z,71.49
2023-04-25T07:51:11.909Z,71.97
2023-04-25T07:53:39.076Z,70.45
2023-04-25T07:56:05.914Z,70.66
2023-04-25T07:58:32.447Z,69.70
2023-04-25T08:00:58.847Z,69.70
2023-04-25T08:03:25.560Z,69.79
2023-04-25T08:05:52.319Z,69.23
2023-04-25T08:08:18.827Z,68.65
2023-04-25T08:10:45.180Z,68.01
2023-04-25T08:13:11.533Z,68.22
2023-04-25T08:15:37.941Z,68.54
2023-04-25T08:18:04.420Z,68.22
2023-04-25T08:20:31.354Z,67.00
2023-04-25T08:22:57.756Z,66.70
2023-04-25T08:25:24.109Z,66.31
2023-04-25T08:27:50.733Z,66.83
2023-04-25T08:30:17.148Z,67.92
2023-04-25T08:32:43.616Z,66.80
2023-04-25T08:35:10.395Z,65.86
2023-04-25T08:37:37.351Z,66.05
2023-04-25T08:40:07.974Z,67.12
2023-04-25T08:42:35.877Z,67.09
2023-04-25T08:45:06.652Z,66.00
2023-04-25T08:47:35.446Z,65.95
2023-04-25T08:50:04.731Z,65.49
2023-04-25T08:52:37.228Z,64.98
2023-04-25T08:55:04.717Z,65.04
2023-04-25T08:57:32.213Z,64.93
2023-04-25T08:59:59.341Z,65.20
2023-04-25T09:02:26.187Z,64.18
2023-04-25T09:04:55.935Z,63.13
2023-04-25T09:07:22.504Z,62.15
2023-04-25T09:09:48.895Z,62.29
2023-04-25T09:12:15.316Z,62.07
2023-04-25T09:14:43.288Z,62.78
2023-04-25T09:17:09.815Z,61.20
2023-04-25T09:19:40.943Z,60.30
2023-04-25T09:22:08.875Z,60.23
2023-04-25T09:24:44.576Z,59.22
2023-04-25T09:27:12.550Z,60.17
2023-04-25T09:29:41.483Z,60.75
2023-04-25T09:32:22.417Z,60.63
2023-04-25T09:34:51.496Z,59.70
2023-04-25T09:37:23.232Z,59.17
2023-04-25T09:40:03.313Z,59.37
2023-04-25T09:42:32.312Z,59.72
2023-04-25T09:44:59.898Z,61.21
2023-04-25T09:47:27.605Z,61.63
2023-04-25T09:49:54.758Z,61.88
2023-04-25T09:52:25.367Z,62.37
2023-04-25T09:54:52.795Z,62.76
2023-04-25T09:57:24.022Z,62.79
2023-04-25T09:59:55.603Z,63.12
2023-04-25T10:02:24.509Z,63.50
2023-04-25T10:04:53.977Z,63.04
2023-04-25T10:07:22.219Z,63.14
2023-04-25T10:09:52.806Z,62.54
2023-04-25T10:12:19.277Z,62.41
2023-04-25T10:14:47.543Z,61.47
2023-04-25T10:17:15.013Z,59.82
2023-04-25T10:19:41.418Z,56.75
2023-04-25T10:22:13.968Z,55.95
2023-04-25T10:24:40.991Z,56.32
2023-04-25T10:27:08.048Z,56.52
2023-04-25T10:29:34.442Z,55.73
2023-04-25T10:32:01.468Z,55.34
2023-04-25T10:34:47.719Z,54.62
2023-04-25T10:37:14.366Z,54.82
2023-04-25T10:39:44.698Z,53.52
2023-04-25T10:42:11.066Z,54.29
2023-04-25T10:44:40.812Z,54.44
2023-04-25T10:47:09.106Z,53.49
2023-04-25T10:49:42.901Z,52.34
2023-04-25T10:52:24.616Z,52.03
2023-04-25T10:54:56.146Z,51.10
2023-04-25T10:57:37.918Z,51.72
2023-04-25T11:00:11.813Z,50.87
2023-04-25T11:02:43.865Z,51.16
2023-04-25T11:05:11.382Z,50.28
2023-04-25T11:08:08.647Z,49.27
2023-04-25T11:10:38.509Z,50.14
2023-04-25T11:13:05.762Z,52.40
2023-04-25T11:15:32.252Z,54.81
2023-04-25T11:17:58.692Z,56.32
2023-04-25T11:20:27.167Z,57.75
2023-04-25T11:22:53.651Z,59.14
2023-04-25T11:25:21.103Z,60.45
2023-04-25T11:27:54.284Z,61.51
2023-04-25T11:30:22.273Z,62.94
2023-04-25T11:32:48.936Z,63.28
2023-04-25T11:35:16.236Z,64.01
2023-04-25T11:37:44.013Z,64.02
2023-04-25T11:40:12.505Z,63.91
2023-04-25T11:42:46.536Z,63.57
2023-04-25T11:45:13.759Z,63.15
2023-04-25T11:47:40.577Z,62.59
2023-04-25T11:50:08.864Z,61.70
2023-04-25T11:52:38.599Z,60.53
2023-04-25T11:55:09.046Z,58.33
2023-04-25T11:57:38.445Z,57.75
2023-04-25T12:00:18.887Z,55.03
2023-04-25T12:02:54.007Z,55.01
2023-04-25T12:07:53.506Z,52.51
2023-04-25T12:10:20.131Z,51.67
2023-04-25T12:12:47.825Z,51.60
2023-04-25T12:15:20.516Z,50.85
2023-04-25T12:17:48.470Z,51.96
2023-04-25T12:20:17.142Z,51.76
2023-04-25T12:22:45.889Z,51.95
2023-04-25T12:25:13.915Z,50.44
2023-04-25T12:27:42.964Z,50.97
2023-04-25T12:30:09.786Z,51.97
2023-04-25T12:32:36.869Z,51.85
2023-04-25T12:35:03.293Z,51.37
2023-04-25T12:37:29.922Z,51.31
2023-04-25T12:39:56.285Z,51.91
2023-04-25T12:42:22.680Z,50.90
2023-04-25T12:44:49.112Z,50.79
2023-04-25T12:47:15.794Z,50.08
2023-04-25T12:49:42.266Z,49.41
2023-04-25T12:52:08.668Z,49.10
2023-04-25T12:54:35.145Z,46.90
2023-04-25T12:57:03.740Z,45.99
2023-04-25T12:59:30.134Z,46.23
2023-04-25T13:01:56.631Z,45.63
2023-04-25T13:04:23.347Z,46.21
2023-04-25T13:06:49.978Z,46.80
2023-04-25T13:09:16.558Z,46.54
2023-04-25T13:11:43.050Z,44.94
2023-04-25T13:14:09.456Z,46.01
2023-04-25T13:16:36.111Z,47.71
2023-04-25T13:19:02.633Z,48.28
2023-04-25T13:21:31.844Z,48.41
2023-04-25T13:23:58.627Z,48.62
2023-04-25T13:26:24.983Z,48.71
2023-04-25T13:28:51.343Z,49.67
2023-04-25T13:31:17.806Z,47.52
2023-04-25T13:33:44.666Z,48.92
2023-04-25T13:36:11.114Z,49.23
2023-04-25T13:38:37.696Z,49.44
2023-04-25T13:41:04.178Z,50.06
2023-04-25T13:43:30.663Z,48.20
2023-04-25T13:45:57.070Z,48.47
2023-04-25T13:48:24.942Z,47.27
2023-04-25T13:50:51.599Z,48.25
2023-04-25T13:53:18.000Z,47.29
2023-04-25T13:55:44.421Z,44.59
2023-04-25T13:58:11.236Z,45.04
2023-04-25T14:00:44.111Z,46.06
2023-04-25T14:03:10.964Z,46.76
2023-04-25T14:05:41.105Z,48.55
2023-04-25T14:08:09.869Z,49.05
2023-04-25T14:10:36.823Z,48.88
2023-04-25T14:13:04.260Z,48.67
2023-04-25T14:15:34.543Z,48.71
2023-04-25T14:18:01.744Z,48.59
2023-04-25T14:20:28.668Z,48.15
2023-04-25T14:22:56.827Z,47.87
2023-04-25T14:25:23.496Z,47.94
2023-04-25T14:27:51.074Z,48.16
2023-04-25T14:30:19.015Z,46.61
2023-04-25T14:32:46.675Z,45.27
2023-04-25T14:35:13.718Z,45.61
2023-04-25T14:37:40.395Z,45.24
2023-04-25T14:40:09.639Z,45.31
2023-04-25T14:42:36.459Z,43.87
2023-04-25T14:45:04.863Z,44.85
2023-04-25T14:47:31.362Z,44.35
2023-04-25T14:49:57.753Z,43.05
2023-04-25T14:52:24.185Z,44.08
2023-04-25T14:54:50.534Z,44.95
2023-04-25T14:57:17.508Z,45.80
2023-04-25T14:59:43.866Z,46.66
2023-04-25T15:02:10.308Z,47.42
2023-04-25T15:04:37.077Z,47.17
2023-04-25T15:07:03.811Z,47.74
2023-04-25T15:09:30.330Z,46.00
2023-04-25T15:11:58.241Z,45.19
2023-04-25T15:14:24.657Z,44.37
2023-04-25T15:16:51.184Z,43.51
2023-04-25T15:19:17.672Z,43.60
2023-04-25T15:21:44.125Z,43.13
2023-04-25T15:24:11.948Z,42.32
2023-04-25T15:26:38.438Z,43.06
2023-04-25T15:29:06.816Z,44.19
2023-04-25T15:31:33.403Z,46.62
2023-04-25T15:33:59.806Z,47.72
2023-04-25T15:36:26.646Z,48.33
2023-04-25T15:38:53.022Z,48.67
2023-04-25T15:41:19.478Z,48.42
2023-04-25T15:43:48.170Z,48.29
2023-04-25T15:46:14.714Z,48.73
2023-04-25T15:48:41.224Z,49.23
2023-04-25T15:51:07.620Z,48.74
2023-04-25T15:53:33.991Z,50.01
2023-04-25T15:56:00.734Z,50.61
2023-04-25T15:58:27.457Z,49.79
2023-04-25T16:00:55.518Z,49.76
2023-04-25T16:03:22.399Z,50.00
2023-04-25T16:05:48.850Z,49.79
2023-04-25T16:08:15.376Z,50.14
2023-04-25T16:10:42.136Z,50.72
2023-04-25T16:13:08.513Z,50.70
2023-04-25T16:15:35.749Z,51.37
2023-04-25T16:18:02.534Z,50.31
2023-04-25T16:20:29.032Z,50.91
2023-04-25T16:22:55.504Z,51.50
2023-04-25T16:25:22.223Z,52.17
2023-04-25T16:27:48.766Z,52.75
2023-04-25T16:30:15.394Z,53.46
2023-04-25T16:32:44.699Z,53.88
2023-04-25T16:35:12.203Z,54.37
2023-04-25T16:37:38.656Z,53.70
2023-04-25T16:40:08.881Z,54.16
2023-04-25T16:42:36.200Z,53.64
2023-04-25T16:45:04.854Z,53.85
2023-04-25T16:47:31.603Z,53.43
2023-04-25T16:50:00.499Z,51.71
2023-04-25T16:52:26.932Z,51.04
2023-04-25T16:54:53.263Z,50.26
2023-04-25T16:57:19.653Z,49.40
2023-04-25T16:59:46.521Z,49.16
2023-04-25T17:02:13.567Z,48.54
2023-04-25T17:04:40.894Z,49.55
2023-04-25T17:07:08.553Z,50.27
2023-04-25T17:09:34.995Z,49.49
2023-04-25T17:12:02.549Z,49.01
2023-04-25T17:14:29.000Z,49.83
2023-04-25T17:16:55.682Z,50.23
2023-04-25T17:19:22.255Z,50.83
2023-04-25T17:21:48.730Z,51.24
2023-04-25T17:24:15.814Z,51.92
2023-04-25T17:26:42.425Z,51.16
2023-04-25T17:29:08.881Z,50.10
2023-04-25T17:31:36.607Z,49.23
2023-04-25T17:34:04.106Z,49.21
2023-04-25T17:36:30.916Z,49.99
2023-04-25T17:38:57.318Z,49.99
2023-04-25T17:41:23.650Z,49.97
2023-04-25T17:43:50.074Z,50.31
2023-04-25T17:46:16.585Z,51.14
2023-04-25T17:48:43.024Z,51.19
2023-04-25T17:51:09.479Z,51.83
2023-04-25T17:53:36.374Z,51.99
2023-04-25T17:56:03.994Z,52.45
2023-04-25T17:58:31.902Z,52.97
2023-04-25T18:00:58.378Z,53.46
2023-04-25T18:03:24.897Z,54.16
2023-04-25T18:05:51.384Z,54.71
2023-04-25T18:08:17.874Z,54.96
2023-04-25T18:10:44.359Z,55.33
2023-04-25T18:13:10.744Z,55.77
2023-04-25T18:15:37.114Z,56.39
2023-04-25T18:18:09.556Z,56.67
2023-04-25T18:20:35.926Z,56.76
2023-04-25T18:23:02.647Z,57.04
2023-04-25T18:25:29.080Z,57.62
2023-04-25T18:27:55.668Z,57.40
2023-04-25T18:30:22.046Z,57.94
2023-04-25T18:32:49.238Z,58.06
2023-04-25T18:35:15.576Z,58.49
2023-04-25T18:37:42.532Z,58.79
2023-04-25T18:40:13.567Z,58.92
2023-04-25T18:42:40.334Z,59.20
2023-04-25T18:45:07.421Z,59.23
2023-04-25T18:47:33.896Z,59.80
2023-04-25T18:50:00.318Z,59.78
2023-04-25T18:52:26.757Z,59.82
2023-04-25T18:54:53.548Z,59.94
2023-04-25T18:57:19.865Z,59.87
2023-04-25T18:59:46.271Z,60.16
2023-04-25T19:02:15.863Z,60.43
2023-04-25T19:04:43.187Z,60.96
2023-04-25T19:07:09.819Z,61.56
2023-04-25T19:09:36.326Z,62.17
2023-04-25T19:12:03.726Z,62.51
2023-04-25T19:14:32.365Z,62.99
2023-04-25T19:17:02.028Z,63.41
2023-04-25T19:19:28.628Z,63.77
2023-04-25T19:21:55.114Z,64.20
2023-04-25T19:24:22.047Z,64.42
2023-04-25T19:26:48.486Z,64.54
2023-04-25T19:29:15.463Z,64.62
2023-04-25T19:31:44.829Z,64.87
2023-04-25T19:34:12.855Z,64.96
2023-04-25T19:36:40.500Z,65.29
2023-04-25T19:39:07.472Z,65.55
2023-04-25T19:41:36.282Z,65.79
2023-04-25T19:44:07.371Z,66.02
2023-04-25T19:46:35.066Z,66.00
2023-04-25T19:49:01.677Z,66.16
2023-04-25T19:51:29.025Z,66.40
2023-04-25T19:53:55.811Z,66.55
2023-04-25T19:56:23.181Z,66.30
2023-04-25T19:58:50.733Z,66.70
2023-04-25T20:01:18.104Z,66.77
2023-04-25T20:03:45.316Z,66.54
2023-04-25T20:06:11.834Z,66.94
2023-04-25T20:08:38.516Z,67.16
2023-04-25T20:11:05.272Z,67.53
2023-04-25T20:13:32.680Z,67.71
2023-04-25T20:16:01.944Z,67.84
2023-04-25T20:18:29.513Z,68.00
2023-04-25T20:20:56.474Z,68.12
2023-04-25T20:23:22.831Z,68.19
2023-04-25T20:25:49.242Z,68.26
2023-04-25T20:28:15.797Z,68.85
2023-04-25T20:30:42.141Z,68.50
2023-04-25T20:33:09.188Z,68.99
2023-04-25T20:35:35.702Z,69.19
2023-04-25T20:38:02.083Z,69.05
2023-04-25T20:40:28.413Z,69.50
2023-04-25T20:42:56.164Z,69.71
2023-04-25T20:45:24.265Z,69.86
2023-04-25T20:47:50.850Z,70.07
2023-04-25T20:50:17.412Z,70.11
2023-04-25T20:52:44.316Z,69.97
2023-04-25T20:55:11.813Z,70.25
2023-04-25T20:57:38.165Z,70.10
2023-04-25T21:00:13.877Z,70.62
2023-04-25T21:02:40.355Z,70.95
2023-04-25T21:05:07.091Z,70.40
2023-04-25T21:07:33.453Z,70.63
2023-04-25T21:09:59.816Z,70.98
2023-04-25T21:12:26.249Z,71.03
2023-04-25T21:14:52.628Z,70.87
2023-04-25T21:17:19.040Z,71.63
2023-04-25T21:19:45.411Z,71.34
2023-04-25T21:22:11.934Z,71.37
2023-04-25T21:24:38.310Z,71.29
2023-04-25T21:27:04.671Z,71.68
2023-04-25T21:29:31.490Z,71.76
2023-04-25T21:31:57.946Z,72.23
2023-04-25T21:34:24.329Z,72.22
2023-04-25T21:36:50.802Z,72.37
2023-04-25T21:39:17.182Z,72.61
2023-04-25T21:41:44.353Z,71.98
2023-04-25T21:44:12.475Z,72.65
2023-04-25T21:46:38.908Z,72.47
2023-04-25T21:49:05.431Z,72.39
2023-04-25T21:51:32.133Z,72.67
2023-04-25T21:54:01.087Z,72.82
2023-04-25T21:56:27.472Z,73.00
2023-04-25T21:58:54.087Z,72.89
2023-04-25T22:01:20.767Z,72.96
2023-04-25T22:03:47.437Z,73.17
2023-04-25T22:06:13.939Z,72.94
2023-04-25T22:08:40.360Z,73.22
2023-04-25T22:11:08.004Z,73.03
2023-04-25T22:13:34.946Z,73.36
2023-04-25T22:16:01.390Z,73.86
2023-04-25T22:18:27.869Z,74.36
2023-04-25T22:20:54.468Z,74.29
2023-04-25T22:23:20.800Z,74.30
2023-04-25T22:25:47.372Z,74.41
2023-04-25T22:28:14.720Z,74.52
2023-04-25T22:30:41.181Z,74.77
2023-04-25T22:33:07.767Z,74.45
2023-04-25T22:35:34.225Z,74.58
2023-04-25T22:38:00.604Z,74.99
2023-04-25T22:40:27.097Z,74.71
2023-04-25T22:42:53.637Z,74.52
2023-04-25T22:45:20.198Z,74.66
2023-04-25T22:47:47.300Z,74.97
2023-04-25T22:50:16.430Z,75.50
2023-04-25T22:52:43.196Z,75.05
2023-04-25T22:55:10.864Z,75.54
2023-04-25T22:57:40.656Z,75.42
2023-04-25T23:00:15.130Z,75.63
2023-04-25T23:02:43.096Z,75.62
2023-04-25T23:05:09.671Z,75.67
2023-04-25T23:07:36.141Z,75.94
2023-04-25T23:10:02.548Z,75.69
2023-04-25T23:12:29.409Z,76.48
2023-04-25T23:14:55.988Z,76.86
2023-04-25T23:17:22.383Z,77.25
2023-04-25T23:19:48.757Z,77.13
2023-04-25T23:22:15.206Z,77.32
2023-04-25T23:24:41.948Z,77.71
2023-04-25T23:27:08.348Z,77.87
2023-04-25T23:29:35.056Z,78.69
2023-04-25T23:32:01.611Z,78.70
2023-04-25T23:34:31.784Z,78.64
2023-04-25T23:37:01.540Z,78.85
2023-04-25T23:39:28.486Z,78.73
2023-04-25T23:41:54.846Z,78.51
2023-04-25T23:44:21.247Z,78.68
2023-04-25T23:46:48.172Z,79.26
2023-04-25T23:49:14.654Z,79.58
2023-04-25T23:51:41.142Z,78.62
2023-04-25T23:54:08.377Z,79.16
2023-04-25T23:56:34.812Z,79.45
2023-04-25T23:59:01.206Z,79.36
